Time;durP1;ratioP1;P1;durP2;ratioP2;P2;SDS_P1;SDS_P2;PMS_P1;PMS_P2;Temp;Humidity;BMP_temperature;BMP_pressure;BME280_temperature;BME280_humidity;BME280_pressure;Samples;Min_cycle;Max_cycle;Signal;HPM_P1;HPM_P2
2023/06/23 00:00:33;;;;;;;;;9.00;9.00;;;;;22.14;53.92;101707.38;6190496;23;44949;-67
2023/06/23 00:02:59;;;;;;;;;9.00;6.00;;;;;22.17;53.95;101712.78;6191006;23;45072;-64
2023/06/23 00:05:28;;;;;;;;;7.00;7.00;;;;;22.17;53.63;101722.78;6191509;23;45273;-65
2023/06/23 00:07:53;;;;;;;;;6.67;6.67;;;;;22.01;53.96;101687.50;6191001;23;46593;-66
2023/06/23 00:10:19;;;;;;;;;10.00;7.00;;;;;22.15;54.02;101716.44;6190453;23;45247;-65
2023/06/23 00:12:45;;;;;;;;;7.00;7.00;;;;;22.15;53.88;101719.16;6191885;23;45233;-67
2023/06/23 00:15:14;;;;;;;;;8.00;5.67;;;;;22.08;53.94;101711.03;6191893;23;44866;-64
2023/06/23 00:17:44;;;;;;;;;10.00;7.00;;;;;22.16;54.13;101735.50;6190791;23;45849;-65
2023/06/23 00:20:12;;;;;;;;;10.67;9.33;;;;;21.99;54.32;101705.66;6190660;23;45013;-66
2023/06/23 00:22:38;;;;;;;;;10.33;9.00;;;;;22.03;54.35;101717.44;6191196;23;45125;-65
2023/06/23 00:25:04;;;;;;;;;5.00;2.00;;;;;21.92;54.42;101712.03;6164793;23;45452;-65
2023/06/23 00:27:29;;;;;;;;;7.00;7.00;;;;;22.05;54.62;101742.81;6164118;23;47403;-65
2023/06/23 00:29:55;;;;;;;;;8.00;8.00;;;;;21.88;54.57;101713.88;6190909;23;45003;-65
2023/06/23 00:32:20;;;;;;;;;10.67;9.00;;;;;21.97;54.92;101736.50;6190528;23;45410;-64
2023/06/23 00:34:46;;;;;;;;;8.33;8.33;;;;;21.94;54.97;101748.28;6190552;23;45434;-66
2023/06/23 00:37:11;;;;;;;;;10.33;8.00;;;;;21.83;54.92;101725.69;6191380;23;45653;-65
2023/06/23 00:39:36;;;;;;;;;9.00;7.00;;;;;21.89;54.69;101736.53;6190322;23;47266;-65
2023/06/23 00:42:03;;;;;;;;;9.33;7.67;;;;;21.83;54.83;101726.59;6189981;23;45801;-65
2023/06/23 00:44:29;;;;;;;;;7.67;5.33;;;;;21.88;54.62;101732.91;6192306;23;45202;-64
2023/06/23 00:46:55;;;;;;;;;5.00;5.00;;;;;21.75;54.58;101695.81;6190574;23;45335;-66
2023/06/23 00:49:20;;;;;;;;;7.67;7.00;;;;;21.88;54.60;101715.69;6191061;23;44906;-66
2023/06/23 00:51:46;;;;;;;;;8.00;6.00;;;;;21.84;54.68;101713.88;6189720;23;44882;-66
2023/06/23 00:54:12;;;;;;;;;8.67;7.67;;;;;21.83;54.93;101725.69;6190806;23;45156;-65
2023/06/23 00:56:39;;;;;;;;;10.33;7.33;;;;;21.84;54.78;101731.09;6188582;23;46752;-65
2023/06/23 00:59:05;;;;;;;;;8.00;7.33;;;;;21.84;54.81;101724.75;6189084;23;44891;-66
2023/06/23 01:01:31;;;;;;;;;8.67;8.67;;;;;21.84;55.13;101732.94;6163577;23;45174;-67
2023/06/23 01:04:00;;;;;;;;;7.00;6.00;;;;;21.83;54.99;101731.13;6190291;23;45189;-65
2023/06/23 01:06:37;;;;;;;;;7.67;7.00;;;;;21.83;55.21;101732.03;6189386;23;45916;-66
2023/06/23 01:09:15;;;;;;;;;10.33;6.67;;;;;21.83;55.15;101733.84;6190949;23;45190;-66
2023/06/23 01:11:49;;;;;;;;;6.67;6.67;;;;;21.68;55.23;101702.19;6190182;23;45099;-66
2023/06/23 01:15:00;;;;;;;;;6.00;5.00;;;;;21.80;55.46;101736.59;6189534;23;44945;-66
2023/06/23 01:17:50;;;;;;;;;5.33;5.33;;;;;21.71;55.53;101724.84;6163739;23;46095;-66
2023/06/23 01:20:21;;;;;;;;;10.33;6.33;;;;;21.70;55.59;101725.72;6186317;23;45356;-65
2023/06/23 01:23:01;;;;;;;;;9.00;7.00;;;;;21.71;55.71;101737.50;6189922;23;45097;-65
2023/06/23 01:25:32;;;;;;;;;9.00;9.00;;;;;21.64;55.99;101725.75;6191607;23;44997;-67
2023/06/23 01:28:28;;;;;;;;;6.00;6.00;;;;;21.57;56.16;101736.69;6190614;23;46225;-65
2023/06/23 01:31:00;;;;;;;;;9.00;9.00;;;;;21.49;56.04;101725.81;6192604;23;44854;-66
2023/06/23 01:33:37;;;;;;;;;7.67;6.67;;;;;21.48;56.42;101735.78;6191533;23;45085;-65
2023/06/23 01:36:09;;;;;;;;;7.67;6.00;;;;;21.46;56.21;101744.81;6166452;23;44906;-65
2023/06/23 01:38:40;;;;;;;;;6.00;6.00;;;;;21.40;56.06;101739.38;6166282;23;47361;-65
2023/06/23 01:41:12;;;;;;;;;9.00;7.33;;;;;21.39;56.05;101759.34;6192046;23;44956;-66
2023/06/23 01:43:40;;;;;;;;;12.33;7.00;;;;;21.37;56.11;101744.88;6191707;23;45308;-66
2023/06/23 01:46:09;;;;;;;;;6.33;6.00;;;;;21.38;55.84;101746.66;6191859;23;45012;-66
2023/06/23 01:48:40;;;;;;;;;7.00;7.00;;;;;21.38;55.94;101758.41;6192062;23;45238;-66
2023/06/23 01:51:07;;;;;;;;;7.33;6.00;;;;;21.32;55.86;101748.47;6191461;23;44963;-67
2023/06/23 01:53:33;;;;;;;;;8.00;5.67;;;;;21.21;56.00;101749.41;6191690;23;45083;-68
2023/06/23 01:56:03;;;;;;;;;6.33;6.33;;;;;21.25;56.22;101760.28;6192307;23;44996;-65
2023/06/23 01:58:31;;;;;;;;;7.00;7.00;;;;;21.20;56.36;101772.97;6191054;23;45612;-65
2023/06/23 02:00:58;;;;;;;;;8.67;4.00;;;;;21.11;56.79;101771.16;6190959;23;44932;-65
2023/06/23 02:03:29;;;;;;;;;6.00;6.00;;;;;21.08;56.68;101775.69;6190517;23;44959;-67
2023/06/23 02:05:57;;;;;;;;;7.00;6.00;;;;;21.03;56.84;101780.22;6191570;23;45094;-65
2023/06/23 02:08:27;;;;;;;;;8.00;8.00;;;;;20.96;56.79;101779.31;6190343;23;45494;-65
2023/06/23 02:10:54;;;;;;;;;5.67;5.67;;;;;20.95;57.44;101792.00;6191695;23;45155;-66
2023/06/23 02:13:22;;;;;;;;;6.67;6.33;;;;;20.77;57.29;101760.31;6190912;23;45319;-64
2023/06/23 02:15:49;;;;;;;;;6.33;6.33;;;;;20.82;57.26;101775.69;6190907;23;45035;-66
2023/06/23 02:18:17;;;;;;;;;9.33;7.33;;;;;20.71;57.41;101763.03;6188530;23;45820;-66
2023/06/23 02:20:45;;;;;;;;;9.00;8.33;;;;;20.82;57.24;101772.97;6190783;23;45228;-65
2023/06/23 02:23:12;;;;;;;;;6.67;6.67;;;;;20.90;57.27;101782.03;6188445;23;45373;-64
2023/06/23 02:25:39;;;;;;;;;5.67;5.33;;;;;20.74;57.36;101759.38;6190420;23;45006;-65
2023/06/23 02:28:07;;;;;;;;;9.33;8.00;;;;;20.85;57.36;101783.84;6189839;23;45787;-64
2023/06/23 02:30:33;;;;;;;;;5.67;5.33;;;;;20.87;57.08;101779.31;6189511;23;45464;-67
2023/06/23 02:32:59;;;;;;;;;7.00;5.67;;;;;20.85;56.78;101779.31;6189878;23;44968;-67
2023/06/23 02:35:24;;;;;;;;;11.00;8.00;;;;;20.69;56.79;101758.47;6190194;23;45155;-64
2023/06/23 02:37:58;;;;;;;;;7.00;6.33;;;;;20.73;57.02;101774.78;6191213;23;45769;-66
2023/06/23 02:40:26;;;;;;;;;7.33;6.00;;;;;20.65;56.94;101776.59;6190843;23;44863;-65
2023/06/23 02:43:21;;;;;;;;;7.33;7.00;;;;;20.54;57.34;101776.56;6189067;23;45316;-65
2023/06/23 02:45:50;;;;;;;;;6.33;5.33;;;;;20.46;57.20;101756.63;6174705;23;45215;-65
2023/06/23 02:48:21;;;;;;;;;7.00;7.00;;;;;20.66;56.99;101791.97;6191386;23;45444;-66
2023/06/23 02:50:48;;;;;;;;;5.00;5.00;;;;;20.67;57.28;101793.78;6190069;23;45060;-64
2023/06/23 02:53:27;;;;;;;;;5.00;5.00;;;;;20.65;56.81;101792.88;6189745;23;45171;-67
2023/06/23 02:56:03;;;;;;;;;7.33;7.00;;;;;20.64;57.24;101796.50;6190388;23;45228;-65
2023/06/23 02:58:30;;;;;;;;;6.67;5.00;;;;;20.70;57.40;101812.78;6189757;23;44950;-65
2023/06/23 03:00:57;;;;;;;;;12.00;7.33;;;;;20.66;57.39;101811.00;6190152;23;45066;-66
2023/06/23 03:03:22;;;;;;;;;5.67;5.67;;;;;20.58;57.52;101807.31;6191576;23;44962;-66
2023/06/23 03:05:49;;;;;;;;;6.00;5.00;;;;;20.58;57.59;101820.91;6191757;23;45163;-66
2023/06/23 03:08:15;;;;;;;;;7.33;7.33;;;;;20.44;57.56;101797.34;6192404;23;45764;-65
2023/06/23 03:10:40;;;;;;;;;9.33;7.33;;;;;20.41;57.46;101793.72;6192345;23;44929;-65
2023/06/23 03:13:07;;;;;;;;;7.67;6.00;;;;;20.44;57.85;101808.19;6165921;23;44967;-66
2023/06/23 03:15:36;;;;;;;;;7.00;5.00;;;;;20.46;57.90;101818.13;6191118;23;44926;-66
2023/06/23 03:18:08;;;;;;;;;9.00;8.00;;;;;20.36;58.04;101806.34;6191400;23;45494;-65
2023/06/23 03:20:45;;;;;;;;;7.33;7.33;;;;;20.34;58.17;101810.88;6191605;23;44917;-67
2023/06/23 03:23:14;;;;;;;;;5.00;5.00;;;;;20.18;58.00;101788.22;6189767;23;44911;-65
2023/06/23 03:25:43;;;;;;;;;9.00;6.67;;;;;20.19;58.42;101792.72;6191945;23;45105;-66
2023/06/23 03:28:12;;;;;;;;;7.00;5.00;;;;;20.22;58.82;101809.94;6191605;23;45207;-66
2023/06/23 03:30:45;;;;;;;;;8.67;8.67;;;;;20.09;58.91;101818.03;6190046;23;45123;-66
2023/06/23 03:33:27;;;;;;;;;5.67;5.67;;;;;19.96;59.04;101806.22;6191387;23;45033;-65
2023/06/23 03:35:56;;;;;;;;;8.33;7.00;;;;;19.93;59.17;101817.97;6192380;23;45199;-66
2023/06/23 03:38:24;;;;;;;;;6.33;6.33;;;;;19.94;59.38;101825.19;6190681;23;46046;-65
2023/06/23 03:41:02;;;;;;;;;8.33;6.33;;;;;19.97;59.22;101835.16;6192055;23;45357;-64
2023/06/23 03:43:34;;;;;;;;;7.00;7.00;;;;;19.94;59.46;101836.03;6191893;23;44923;-65
2023/06/23 03:46:06;;;;;;;;;7.00;6.00;;;;;19.93;59.20;101825.19;6191454;23;45051;-65
2023/06/23 03:48:36;;;;;;;;;8.00;6.67;;;;;19.92;59.53;101826.09;6164904;23;47982;-65
2023/06/23 03:51:03;;;;;;;;;9.67;8.00;;;;;19.95;59.33;101836.97;6191707;23;44841;-66
2023/06/23 03:53:32;;;;;;;;;8.00;8.00;;;;;19.86;59.90;101837.81;6192016;23;45227;-65
2023/06/23 03:55:59;;;;;;;;;8.00;7.00;;;;;19.82;59.87;101845.03;6192687;23;45111;-63
2023/06/23 03:58:26;;;;;;;;;7.67;7.00;;;;;19.69;59.93;101825.03;6165250;23;46269;-65
2023/06/23 04:00:55;;;;;;;;;9.00;6.33;;;;;19.81;60.31;101842.28;6191427;23;45099;-65
2023/06/23 04:03:22;;;;;;;;;11.00;8.67;;;;;19.75;59.85;101828.66;6159298;23;45447;-65
2023/06/23 04:05:49;;;;;;;;;6.67;6.67;;;;;19.71;60.33;101830.44;6154067;23;45336;-65
2023/06/23 04:08:18;;;;;;;;;12.00;7.67;;;;;19.74;60.66;101853.97;6153816;23;45472;-65
2023/06/23 04:10:44;;;;;;;;;11.00;7.33;;;;;19.71;60.54;101844.00;6180427;23;45336;-64
2023/06/23 04:13:12;;;;;;;;;12.67;9.33;;;;;19.70;60.77;101862.09;6179400;23;45471;-65
2023/06/23 04:15:40;;;;;;;;;12.67;9.67;;;;;19.63;60.53;101857.53;6153495;23;45561;-63
2023/06/23 04:18:07;;;;;;;;;16.33;8.00;;;;;19.70;60.87;101866.63;6178946;23;45276;-65
2023/06/23 04:20:34;;;;;;;;;6.67;6.67;;;;;19.69;60.74;101875.63;6153351;23;45407;-65
2023/06/23 04:23:03;;;;;;;;;8.00;5.00;;;;;19.70;60.77;101881.06;6179935;23;45479;-65
2023/06/23 04:25:29;;;;;;;;;8.00;5.67;;;;;19.57;60.78;101854.78;6180251;23;45376;-65
2023/06/23 04:27:59;;;;;;;;;6.33;5.33;;;;;19.74;60.59;101865.72;6179483;23;45469;-65
2023/06/23 04:30:28;;;;;;;;;9.67;6.33;;;;;19.72;60.25;101848.56;6179605;23;45394;-66
2023/06/23 04:32:53;;;;;;;;;8.00;8.00;;;;;19.89;60.34;101876.69;6179328;23;45423;-66
2023/06/23 04:35:19;;;;;;;;;7.67;6.00;;;;;19.93;60.24;101876.72;6179725;23;45659;-65
2023/06/23 04:37:49;;;;;;;;;11.33;7.00;;;;;19.89;60.08;101862.22;6178970;23;46407;-65
2023/06/23 04:40:29;;;;;;;;;11.00;10.00;;;;;19.92;60.28;101862.25;6178837;23;45320;-67
2023/06/23 04:43:12;;;;;;;;;9.67;7.00;;;;;19.93;60.03;101863.16;6179150;23;45447;-66
2023/06/23 04:45:46;;;;;;;;;9.33;6.00;;;;;19.81;60.40;101836.88;6180705;23;45482;-66
2023/06/23 04:48:13;;;;;;;;;9.00;7.67;;;;;20.00;60.11;101886.72;6182801;23;45312;-66
2023/06/23 04:50:41;;;;;;;;;13.00;8.67;;;;;19.99;60.17;101901.16;6180095;23;45374;-66
2023/06/23 04:53:14;;;;;;;;;6.67;6.67;;;;;19.90;60.23;101877.63;6153618;23;45233;-66
2023/06/23 04:55:44;;;;;;;;;7.00;7.00;;;;;20.01;60.35;101889.44;6179699;23;45429;-66
2023/06/23 04:58:12;;;;;;;;;9.00;9.00;;;;;20.01;60.72;101905.72;6179886;23;46485;-65
2023/06/23 05:00:39;;;;;;;;;11.00;8.33;;;;;20.03;60.30;101895.78;6179844;23;45514;-64
2023/06/23 05:03:06;;;;;;;;;8.00;6.33;;;;;20.07;60.64;101883.13;6179592;23;45300;-65
2023/06/23 05:05:33;;;;;;;;;10.33;6.67;;;;;20.22;60.19;101896.75;6179844;23;45209;-65
2023/06/23 05:08:01;;;;;;;;;9.33;8.33;;;;;20.30;60.42;101901.34;6179000;23;46164;-66
2023/06/23 05:10:29;;;;;;;;;5.67;5.00;;;;;20.21;59.81;101869.63;6179880;23;45291;-65
2023/06/23 05:12:58;;;;;;;;;5.67;5.67;;;;;20.44;59.92;101900.50;6180051;23;45350;-69
2023/06/23 05:15:25;;;;;;;;;4.67;4.67;;;;;20.49;59.78;101903.25;6153308;23;45380;-65
2023/06/23 05:17:55;;;;;;;;;10.67;10.33;;;;;20.49;59.80;101902.31;6177989;23;47027;-66
2023/06/23 05:20:23;;;;;;;;;7.67;7.00;;;;;20.58;59.30;101910.50;6178829;23;45232;-65
2023/06/23 05:22:51;;;;;;;;;11.67;7.00;;;;;20.60;59.41;101917.72;6178119;23;45365;-65
2023/06/23 05:25:19;;;;;;;;;8.00;6.00;;;;;20.60;59.42;101912.31;6191963;23;45095;-67
2023/06/23 05:27:46;;;;;;;;;7.00;7.00;;;;;20.69;59.18;101921.41;6190050;23;45198;-70
2023/06/23 05:30:17;;;;;;;;;7.33;6.33;;;;;20.70;58.99;101923.25;6188278;23;45348;-67
2023/06/23 05:32:44;;;;;;;;;7.33;7.33;;;;;20.67;58.89;101921.41;6164087;23;45288;-65
2023/06/23 05:35:13;;;;;;;;;12.33;10.67;;;;;20.73;58.63;101921.44;6191013;23;45316;-66
2023/06/23 05:37:40;;;;;;;;;10.33;8.00;;;;;20.78;58.94;101921.47;6165255;23;46544;-66
2023/06/23 05:40:08;;;;;;;;;7.33;5.00;;;;;20.63;58.51;101889.72;6192528;23;44951;-66
2023/06/23 05:42:34;;;;;;;;;10.67;7.67;;;;;20.65;58.59;101889.72;6193225;23;44933;-67
2023/06/23 05:45:03;;;;;;;;;26.50;24.50;;;;;20.72;58.57;101895.19;6192847;23;45484;-66
2023/06/23 05:47:42;;;;;;;;;11.67;11.67;;;;;20.86;58.75;101910.63;6165700;23;47300;-67
2023/06/23 05:50:16;;;;;;;;;5.67;5.67;;;;;20.86;58.75;101919.66;6188631;23;45236;-67
2023/06/23 05:52:53;;;;;;;;;7.33;6.33;;;;;20.84;58.56;101910.63;6158377;23;45607;-69
2023/06/23 05:55:19;;;;;;;;;12.00;8.00;;;;;20.84;58.40;101910.63;6187112;23;45216;-70
2023/06/23 05:57:47;;;;;;;;;13.33;12.67;;;;;20.92;58.32;101925.13;6190428;23;45126;-70
2023/06/23 06:00:18;;;;;;;;;8.33;4.33;;;;;20.86;58.08;101907.91;6186253;23;45282;-67
2023/06/23 06:02:48;;;;;;;;;12.00;8.33;;;;;21.01;58.06;101934.19;6151197;23;45583;-67
2023/06/23 06:05:17;;;;;;;;;8.67;7.00;;;;;20.99;58.11;101915.19;6154126;23;45503;-67
2023/06/23 06:07:44;;;;;;;;;10.33;6.00;;;;;21.09;57.92;101933.31;6179369;23;45475;-69
2023/06/23 06:10:12;;;;;;;;;8.33;8.33;;;;;21.08;58.11;101928.75;6153883;23;45487;-71
2023/06/23 06:12:42;;;;;;;;;10.67;8.00;;;;;20.99;58.47;101926.94;6179767;23;45366;-68
2023/06/23 06:15:09;;;;;;;;;10.00;6.00;;;;;21.08;57.98;101953.22;6184624;23;45464;-69
2023/06/23 06:17:39;;;;;;;;;8.67;7.00;;;;;21.03;57.99;101944.16;6158304;23;46027;-71
2023/06/23 06:20:06;;;;;;;;;7.33;5.67;;;;;20.99;57.84;101951.41;6190611;23;44957;-69
2023/06/23 06:22:35;;;;;;;;;9.00;6.33;;;;;21.02;58.71;101944.16;6184975;23;45308;-68
2023/06/23 06:25:03;;;;;;;;;8.00;7.00;;;;;20.93;58.44;101913.34;6190172;23;45026;-64
2023/06/23 06:27:32;;;;;;;;;11.33;8.67;;;;;21.13;58.43;101939.63;6164006;23;47019;-62
2023/06/23 06:29:59;;;;;;;;;11.00;10.33;;;;;21.10;58.07;101931.47;6191194;23;45233;-60
2023/06/23 06:32:29;;;;;;;;;36.00;30.25;;;;;21.14;57.89;101919.72;6189669;23;45025;-64
2023/06/23 06:34:57;;;;;;;;;19.67;18.00;;;;;21.24;57.80;101935.13;6164247;23;45187;-62
2023/06/23 06:37:25;;;;;;;;;8.67;8.67;;;;;21.29;57.75;101930.59;6178169;23;46020;-65
2023/06/23 06:39:51;;;;;;;;;10.33;9.00;;;;;21.40;57.41;101941.50;6183588;23;45347;-61
2023/06/23 06:42:17;;;;;;;;;11.33;8.33;;;;;21.39;57.44;101944.22;6183790;23;45190;-63
2023/06/23 06:44:43;;;;;;;;;7.33;6.33;;;;;21.27;57.43;101921.53;6153939;23;45403;-64
2023/06/23 06:47:10;;;;;;;;;13.00;11.33;;;;;21.46;57.44;101938.75;6180518;23;45894;-63
2023/06/23 06:49:37;;;;;;;;;8.67;7.67;;;;;21.52;57.05;101938.81;6178744;23;45395;-64
2023/06/23 06:52:04;;;;;;;;;8.00;6.00;;;;;21.61;56.89;101940.59;6180392;23;45395;-60
2023/06/23 06:54:29;;;;;;;;;10.00;7.00;;;;;21.67;56.43;101942.44;6154299;23;45470;-60
2023/06/23 06:56:56;;;;;;;;;11.33;9.00;;;;;21.78;56.58;101950.56;6181355;23;45463;-63
2023/06/23 06:59:21;;;;;;;;;12.00;10.33;;;;;21.80;56.33;101948.78;6180977;23;45375;-61
2023/06/23 07:01:48;;;;;;;;;8.00;6.00;;;;;21.85;56.39;101958.72;6180090;23;45336;-59
2023/06/23 07:04:23;;;;;;;;;6.00;6.00;;;;;21.97;55.94;101951.47;6154261;23;45394;-61
2023/06/23 07:06:52;;;;;;;;;11.33;7.00;;;;;21.94;56.08;101935.13;6179199;23;46173;-59
2023/06/23 07:09:18;;;;;;;;;9.00;8.67;;;;;22.02;55.52;101941.47;6178712;23;45520;-58
2023/06/23 07:11:47;;;;;;;;;9.67;9.67;;;;;22.09;55.49;101946.91;6179725;23;45386;-64
2023/06/23 07:14:12;;;;;;;;;7.00;7.00;;;;;22.13;55.52;101927.84;6180487;23;45389;-59
2023/06/23 07:16:37;;;;;;;;;9.33;7.33;;;;;22.25;55.28;101928.69;6179959;23;46367;-58
2023/06/23 07:19:03;;;;;;;;;12.00;8.33;;;;;22.02;54.90;101868.91;6180256;23;45274;-60
2023/06/23 07:21:28;;;;;;;;;11.00;9.00;;;;;22.47;54.63;101920.47;6180105;23;45277;-61
2023/06/23 07:23:54;;;;;;;;;8.00;6.67;;;;;22.48;54.31;101914.13;6180207;23;45649;-60
2023/06/23 07:26:19;;;;;;;;;7.33;6.33;;;;;22.47;54.01;101897.81;6179238;23;45216;-59
2023/06/23 07:28:48;;;;;;;;;11.00;8.67;;;;;22.67;53.75;101922.22;6180329;23;45457;-61
2023/06/23 07:31:14;;;;;;;;;12.67;6.33;;;;;22.63;53.65;101918.59;6179349;23;45399;-60
2023/06/23 07:33:41;;;;;;;;;12.33;8.00;;;;;22.49;53.86;101888.72;6152947;23;45527;-59
2023/06/23 07:36:06;;;;;;;;;18.67;15.33;;;;;22.61;53.81;101901.38;6178998;23;47409;-61
2023/06/23 07:38:32;;;;;;;;;7.67;7.67;;;;;22.68;53.30;101899.53;6179108;23;45230;-63
2023/06/23 07:40:57;;;;;;;;;7.67;7.00;;;;;22.81;53.42;101928.50;6181368;23;45286;-59
2023/06/23 07:43:23;;;;;;;;;9.33;9.33;;;;;22.70;53.15;101895.84;6180722;23;45256;-64
2023/06/23 07:45:49;;;;;;;;;7.00;4.00;;;;;22.80;52.54;101910.34;6153153;23;45992;-59
2023/06/23 07:48:14;;;;;;;;;12.33;8.67;;;;;22.99;52.46;101936.56;6178759;23;45306;-61
2023/06/23 07:50:39;;;;;;;;;6.33;6.33;;;;;23.09;52.11;101926.53;6179886;23;45253;-61
2023/06/23 07:53:05;;;;;;;;;10.67;8.00;;;;;23.11;51.82;101910.19;6180877;23;45434;-58
2023/06/23 07:55:30;;;;;;;;;8.00;8.00;;;;;23.29;51.25;101936.41;6178311;23;46070;-66
2023/06/23 07:57:55;;;;;;;;;6.00;6.00;;;;;22.83;51.06;101864.00;6179030;23;45173;-66
2023/06/23 08:00:23;;;;;;;;;8.00;6.67;;;;;23.19;51.18;101909.19;6178610;23;45323;-66
2023/06/23 08:02:49;;;;;;;;;7.00;7.00;;;;;23.41;50.83;101940.84;6179299;23;45296;-66
2023/06/23 08:05:14;;;;;;;;;13.00;11.00;;;;;23.50;50.97;101938.06;6179847;23;45879;-65
2023/06/23 08:07:40;;;;;;;;;7.67;7.00;;;;;23.62;50.63;101937.94;6179696;23;45608;-66
2023/06/23 08:10:05;;;;;;;;;8.00;8.00;;;;;23.73;50.65;101940.59;6179869;23;45595;-66
2023/06/23 08:12:35;;;;;;;;;10.67;6.00;;;;;23.79;50.34;101931.44;6180030;23;45477;-66
2023/06/23 08:15:01;;;;;;;;;10.00;8.67;;;;;23.87;50.28;101929.56;6179225;23;45743;-65
2023/06/23 08:17:26;;;;;;;;;8.00;7.00;;;;;24.01;49.84;101952.16;6179073;23;45307;-66
2023/06/23 08:19:51;;;;;;;;;7.00;7.00;;;;;24.08;49.80;101953.00;6179202;23;44983;-66
2023/06/23 08:22:17;;;;;;;;;8.00;7.67;;;;;24.23;49.73;101960.13;6180714;23;45476;-66
2023/06/23 08:24:42;;;;;;;;;14.67;12.33;;;;;24.34;49.69;101960.91;6180160;23;46266;-67
2023/06/23 08:27:08;;;;;;;;;8.33;7.00;;;;;24.42;48.86;101966.31;6179776;23;45399;-68
2023/06/23 08:29:33;;;;;;;;;8.67;7.67;;;;;24.45;48.65;101949.84;6152431;23;45401;-66
2023/06/23 08:31:59;;;;;;;;;8.00;8.00;;;;;24.51;48.49;101952.50;6179906;23;45459;-68
2023/06/23 08:34:24;;;;;;;;;6.33;5.33;;;;;24.51;48.12;101962.53;6179088;23;45591;-68
2023/06/23 08:36:50;;;;;;;;;10.33;8.00;;;;;24.47;47.95;101951.66;6181309;23;45450;-67
2023/06/23 08:39:15;;;;;;;;;16.67;12.00;;;;;24.61;48.56;101959.69;6178627;23;45189;-67
2023/06/23 08:41:46;;;;;;;;;13.00;9.33;;;;;24.70;47.84;101964.16;6179953;23;45435;-67
2023/06/23 08:44:14;;;;;;;;;13.67;9.00;;;;;24.67;47.93;101950.53;6178783;23;45443;-68
2023/06/23 08:46:41;;;;;;;;;9.67;7.00;;;;;24.87;47.67;101971.22;6178686;23;45335;-67
2023/06/23 08:49:15;;;;;;;;;11.33;8.67;;;;;24.98;47.94;101974.72;6177654;23;45249;-68
2023/06/23 08:51:41;;;;;;;;;10.00;8.67;;;;;25.04;47.92;101969.16;6179533;23;45260;-67
2023/06/23 08:54:07;;;;;;;;;25.67;20.67;;;;;25.16;47.72;101968.97;6191344;23;45098;-67
2023/06/23 08:56:33;;;;;;;;;11.00;6.33;;;;;25.20;47.01;101959.78;6191534;23;44889;-68
2023/06/23 08:58:58;;;;;;;;;7.33;7.00;;;;;25.36;46.78;101976.91;6187694;23;45366;-67
2023/06/23 09:01:24;;;;;;;;;5.00;5.00;;;;;25.38;45.89;101975.03;6180300;23;45378;-66
2023/06/23 09:03:50;;;;;;;;;7.33;5.67;;;;;25.41;45.75;101978.66;6180160;23;46959;-67
2023/06/23 09:06:15;;;;;;;;;4.67;4.67;;;;;25.44;45.43;101979.53;6178595;23;45312;-67
2023/06/23 09:08:41;;;;;;;;;6.33;6.33;;;;;25.49;45.89;101965.75;6179829;23;45319;-65
2023/06/23 09:11:07;;;;;;;;;6.00;5.00;;;;;25.64;45.91;101979.22;6180863;23;45470;-67
2023/06/23 09:13:39;;;;;;;;;6.00;6.00;;;;;25.59;45.42;101955.56;6179004;23;46155;-66
2023/06/23 09:16:05;;;;;;;;;6.00;5.00;;;;;25.58;45.16;101943.72;6153165;23;45431;-65
2023/06/23 09:18:38;;;;;;;;;6.67;5.67;;;;;25.83;45.16;101981.63;6179796;23;45470;-66
2023/06/23 09:21:05;;;;;;;;;11.00;9.67;;;;;25.88;45.21;101977.84;6180011;23;45525;-66
2023/06/23 09:23:31;;;;;;;;;4.00;4.00;;;;;26.05;44.64;101995.84;6178593;23;45476;-66
2023/06/23 09:25:56;;;;;;;;;6.67;5.00;;;;;26.13;44.03;101991.13;6152408;23;45581;-66
2023/06/23 09:28:31;;;;;;;;;3.33;3.00;;;;;26.17;43.50;101975.53;6180027;23;45462;-67
2023/06/23 09:30:59;;;;;;;;;5.00;5.00;;;;;26.11;43.19;101961.03;6180283;23;45475;-66
2023/06/23 09:33:26;;;;;;;;;12.67;10.67;;;;;26.24;43.32;101977.25;6177806;23;45606;-66
2023/06/23 09:35:56;;;;;;;;;7.67;5.00;;;;;26.28;42.48;101971.69;6179790;23;45263;-66
2023/06/23 09:38:26;;;;;;;;;6.33;5.00;;;;;26.36;42.78;101992.53;6151609;23;45424;-68
2023/06/23 09:41:12;;;;;;;;;7.00;7.00;;;;;26.37;41.90;101981.53;6179381;23;45249;-67
2023/06/23 09:43:42;;;;;;;;;8.00;4.00;;;;;26.34;41.60;101978.88;6178507;23;46387;-67
2023/06/23 09:46:10;;;;;;;;;5.33;5.33;;;;;26.37;41.23;101980.66;6177969;23;45419;-68
2023/06/23 09:48:58;;;;;;;;;5.00;5.00;;;;;26.35;41.44;101968.78;6153065;23;45477;-68
2023/06/23 09:51:24;;;;;;;;;7.00;7.00;;;;;26.49;41.01;101980.38;6178606;23;45874;-68
2023/06/23 09:53:50;;;;;;;;;4.00;4.00;;;;;26.40;40.24;101954.09;6178585;23;45428;-67
2023/06/23 09:56:20;;;;;;;;;5.00;4.00;;;;;26.47;40.69;101963.97;6126509;23;45362;-67
2023/06/23 09:58:47;;;;;;;;;3.00;3.00;;;;;26.57;40.53;101970.16;6179386;23;45325;-67
2023/06/23 10:01:17;;;;;;;;;8.33;3.00;;;;;26.50;40.73;101946.59;6182144;23;45481;-67
2023/06/23 10:03:45;;;;;;;;;3.67;3.67;;;;;26.71;40.38;101967.16;6177651;23;46538;-66
2023/06/23 10:06:29;;;;;;;;;44.50;36.50;;;;;26.77;40.14;101961.53;6178360;23;45491;-66
2023/06/23 10:09:11;;;;;;;;;6.33;5.33;;;;;26.83;39.90;101966.00;6175724;23;45406;-67
2023/06/23 10:11:38;;;;;;;;;7.67;7.67;;;;;26.83;39.75;101947.72;6178123;23;45523;-67
2023/06/23 10:14:07;;;;;;;;;4.00;4.00;;;;;26.92;39.07;101954.81;6177888;23;45583;-68
2023/06/23 10:16:34;;;;;;;;;15.00;12.67;;;;;26.91;39.19;101949.38;6177821;23;45259;-67
2023/06/23 10:19:00;;;;;;;;;15.67;13.33;;;;;26.93;38.95;101950.25;6177733;23;45258;-67
2023/06/23 10:21:25;;;;;;;;;6.00;5.00;;;;;27.02;39.39;101961.00;6181505;23;45335;-68
2023/06/23 10:23:54;;;;;;;;;18.00;14.67;;;;;27.09;38.87;101956.28;6179208;23;46126;-69
2023/06/23 10:26:20;;;;;;;;;10.00;8.33;;;;;27.15;39.00;101957.03;6179686;23;45337;-67
2023/06/23 10:28:49;;;;;;;;;4.33;4.33;;;;;27.16;39.25;101942.38;6181489;23;45268;-67
2023/06/23 10:31:16;;;;;;;;;4.67;4.67;;;;;27.24;39.29;101944.03;6180947;23;45367;-68
2023/06/23 10:33:43;;;;;;;;;3.33;1.67;;;;;27.24;39.36;101949.50;6179118;23;45975;-66
2023/06/23 10:36:11;;;;;;;;;8.67;6.00;;;;;27.20;39.33;101952.31;6151596;23;45514;-66
2023/06/23 10:38:42;;;;;;;;;4.33;3.67;;;;;26.92;39.08;101883.50;6154303;23;45225;-66
2023/06/23 10:41:10;;;;;;;;;3.33;3.33;;;;;27.27;38.92;101947.59;6155074;23;45325;-68
2023/06/23 10:43:39;;;;;;;;;6.00;6.00;;;;;27.34;38.72;101943.81;6179455;23;46248;-68
2023/06/23 10:46:05;;;;;;;;;7.33;7.33;;;;;27.28;38.44;101924.72;6180474;23;45466;-67
2023/06/23 10:48:30;;;;;;;;;5.33;4.00;;;;;27.32;38.63;101923.75;6180492;23;45413;-67
2023/06/23 10:50:56;;;;;;;;;11.67;11.67;;;;;27.47;38.99;101946.25;6181233;23;45585;-67
2023/06/23 10:53:30;;;;;;;;;7.67;6.00;;;;;27.45;38.35;101945.38;6180420;23;45477;-69
2023/06/23 10:55:56;;;;;;;;;21.33;19.67;;;;;27.46;38.04;101949.94;6151977;23;45255;-67
2023/06/23 10:58:26;;;;;;;;;5.00;5.00;;;;;27.50;37.58;101943.41;6178993;23;45351;-67
2023/06/23 11:00:54;;;;;;;;;40.25;32.50;;;;;27.53;37.81;101943.34;6153794;23;45369;-69
2023/06/23 11:03:30;;;;;;;;;6.33;6.33;;;;;27.55;37.12;101950.63;6179130;23;46587;-68
2023/06/23 11:05:57;;;;;;;;;3.67;3.67;;;;;27.57;37.68;101948.72;6178934;23;45259;-68
2023/06/23 11:08:34;;;;;;;;;9.67;8.67;;;;;27.46;37.20;101922.50;6178732;23;45464;-68
2023/06/23 11:11:03;;;;;;;;;7.33;6.00;;;;;27.61;37.24;101949.53;6180245;23;45578;-67
2023/06/23 11:13:45;;;;;;;;;6.00;5.00;;;;;27.55;37.25;101944.19;6178018;23;45662;-68
2023/06/23 11:16:16;;;;;;;;;8.00;6.67;;;;;27.51;36.60;101957.09;6151012;23;45341;-68
2023/06/23 11:18:52;;;;;;;;;8.67;5.00;;;;;27.55;37.11;101949.69;6178318;23;45462;-68
2023/06/23 11:21:39;;;;;;;;;6.00;5.00;;;;;27.57;36.28;101956.06;6179887;23;45462;-68
2023/06/23 11:24:11;;;;;;;;;7.00;5.00;;;;;27.49;36.78;101950.75;6179550;23;46544;-69
2023/06/23 11:26:42;;;;;;;;;7.33;7.33;;;;;27.48;36.97;101942.56;6179868;23;45637;-68
2023/06/23 11:29:13;;;;;;;;;6.00;4.00;;;;;27.49;36.56;101947.13;6180651;23;45550;-67